Partenaires institutionnels


Sponsors

060/34.00.00
www.octaplus.be
info.mariembourg@octaplus.be
COURSE AUX FLAMBEAUX
20:04:48 390 classés 5,800 km
POS DOS SEXE NOM CLUB TEMPS REEL VIT MOY CAT PL. PTS
1 2220 DAMAGEUX REMI RRB ASFA 00:20:05 00:20:05 17,328 03:28 TC H 1 1000
2 2227 EL YOUNOUSSI EL HOUCINE FONTE ARDENNAISE 00:20:10 00:20:10 17,256 03:29 TC H 2 996
3 2214 ROBIN GRAUX PASSION CYCLE TEAM 00:20:18 00:20:18 17,143 03:30 TC H 3 989
4 2145 ROMAIN DEBROUX TRAKKS 00:20:20 00:20:20 17,115 03:30 TC H 4 988
5 1094 VINCENT MOURA ATHÉNÉE ROYAL CHIMAY 00:20:42 00:20:42 16,812 03:34 SCO H 1 970
6 2178 TOM DRYGALSKI TRAKKS 00:20:43 00:20:43 16,798 03:34 TC H 5 969
7 2189 CHRISTOPHE FRANÇOIS TRAKKS 00:21:00 00:21:00 16,571 03:37 TC H 6 956
8 2150 VANDERROOST DAVY HOME SOLUTION 00:21:12 00:21:12 16,415 03:39 TC H 7 947
9 1018 DAMIEN RIFFLART JTRR 00:21:14 00:21:14 16,389 03:40 TC H 8 946
10 2026 SÉBASTIEN WILMART JACO 00:21:35 00:21:35 16,123 03:43 TC H 9 931
11 1035 NICOLAS MORTIER ESM 00:22:01 00:22:01 15,806 03:48 CAD H 1 912
12 2240 SAFI MAZUL REFUGIES DE COUVIN 00:22:20 00:22:20 15,582 03:51 TC H 10 899
13 1001 KYLIAN PONCELET ACFRONTIERES 00:22:22 00:22:22 15,559 03:51 SCO H 2 898
14 1037 MAXIME NUYTTEN ACCO 00:22:31 00:22:31 15,455 03:53 CAD H 2 892
15 1008 SÉBASTIEN GUILLAUME SHARKS TRIATHLON-JACO 00:22:40 00:22:40 15,353 03:54 TC H 11 886
16 2073 JACQUEMART JULIEN 00:22:42 00:22:42 15,330 03:55 TC H 12 885
17 2259 ANTOINE -MINIMAX MAGAIN 00:22:44 00:22:44 15,308 03:55 TC H 13 883
18 1169 RAPHAEL DEGIMBE RAPTOR TEAM 00:22:45 00:22:45 15,297 03:55 TC H 14 883
19 2064 MEUNIER NICOLAS ACCO 00:22:47 00:22:47 15,274 03:56 TC H 15 881
20 2385 WILMART CORENTIN PETIGNY-FRASNES 00:22:47 00:22:47 15,274 03:56 TC H 16 881
21 1112 ROWAN NOIRET ATHÉNÉE ROYAL JEAN REY SEC. 00:22:56 00:22:56 15,174 03:57 CAD H 3 876
22 1190 TOBIAS DETRE JCPMF CHIMAY 00:23:01 00:23:01 15,119 03:58 TC H 17 873
23 234 RIOS JOSÉ JACO 00:23:05 00:23:05 15,076 03:59 TC H 18 870
24 1002 BERTRAND AMANT LA THURE 00:23:10 00:23:10 15,022 04:00 TC H 19 867
25 2049 THOMAS BRAUNE UAC 00:23:27 00:23:27 14,840 04:03 SCO H 3 856
26 1080 LUCAS GRUMIAUX ATHÉNÉE ROYAL CHIMAY 00:23:41 00:23:41 14,694 04:05 SCO H 4 848
27 1091 ALEXANDRE MOHDHI ATHÉNÉE ROYAL CHIMAY 00:23:42 00:23:42 14,683 04:05 CAD H 4 847
28 2321 F TRIFFAUX ANNE CABW 00:23:48 00:23:48 14,622 04:06 TC F 1 844
29 1069 BRUNO BELLENGER JTRR 00:24:00 00:24:00 14,500 04:08 TC H 20 837
30 1047 STEPHANE ROGGE 00:24:02 00:24:02 14,480 04:09 TC H 21 836
31 1144 ETIENNE FERY RAPTOR TEAM 00:24:05 00:24:05 14,450 04:09 TC H 22 834
32 2176 GUISOLAND LEO SUPERBIKERS 00:24:17 00:24:17 14,331 04:11 SCO H 5 827
33 2289 F OUMAIMA OUBOUSKOUR CRAC 00:24:21 00:24:21 14,291 04:12 SCO F 1 825
34 2276 TRANCON SEBASTIEN 00:24:22 00:24:22 14,282 04:12 TC H 23 824
35 1133 MARTIN MOULIN ATHÉNÉE ROYAL PHILIPPEVILLE 00:24:27 00:24:27 14,233 04:13 CAD H 5 821
36 2236 SHERZAD ZUBAIRULLAH REFUGIES DE COUVIN 00:24:27 00:24:27 14,233 04:13 TC H 24 821
37 1135 GUILLAUME POCHET ATHÉNÉE ROYAL PHILIPPEVILLE 00:24:31 00:24:31 14,194 04:14 CAD H 6 819
38 1142 THIBAUT BASTIN JACO 00:24:34 00:24:34 14,165 04:14 xH 1 818
39 2297 BAILLY ROMAIN JACO 00:24:34 00:24:34 14,165 04:14 xH 2 818
40 2110 QUEIROZ TRISTAN 00:24:45 00:24:45 14,061 04:16 CAD H 7 811
41 2264 KEVIN MICHAUX ACCO 00:24:50 00:24:50 14,013 04:17 TC H 25 809
42 243 BOULAY DORIAN 00:24:51 00:24:51 14,004 04:17 xH 3 808
43 1022 ARNAUD ROCHETTE 00:24:56 00:24:56 13,957 04:18 TC H 26 805
44 2361 DEKAELES BENJAMIN 00:25:01 00:25:01 13,911 04:19 TC H 27 803
45 2089 SHINWARI MORI KHAN REFUGIES DE COUVIN 00:25:20 00:25:20 13,737 04:22 TC H 28 793
46 1132 FLORIAN MEUNIER ATHÉNÉE ROYAL PHILIPPEVILLE 00:25:22 00:25:22 13,719 04:22 SCO H 6 792
47 2090 DENIL QUENTIN 00:25:22 00:25:22 13,719 04:22 SCO H 7 792
48 1104 EBUBIKIR BOGA ATHÉNÉE ROYAL JEAN REY SEC. 00:25:30 00:25:30 13,647 04:24 SCO H 8 788
49 2009 DEWEVER DYLAN 00:25:30 00:25:30 13,647 04:24 SCO H 9 788
50 1155 ARNAUD SOMME KIN&SPORT 00:25:35 00:25:35 13,603 04:25 SCO H 10 785
51 2070 AGLAVE JONATHAN 00:25:40 00:25:40 13,558 04:26 TC H 29 782
52 1089 GEOFFREY MOUCHERONT ATHÉNÉE ROYAL CHIMAY 00:25:42 00:25:42 13,541 04:26 SCO H 11 781
53 2256 ANDY LENOIR JTRR 00:25:42 00:25:42 13,541 04:26 TC H 30 781
54 345 RIFFLAT MATHIEU JTRR 00:25:43 00:25:43 13,532 04:26 TC H 31 781
55 2065 VALENTIN CALLENS 00:25:43 00:25:43 13,532 04:26 SCO H 12 781
56 2325 TANIS QUENTIN 00:25:44 00:25:44 13,523 04:26 TC H 32 780
57 2398 GOOSSENS BERTRAND 00:25:48 00:25:48 13,488 04:27 TC H 33 778
58 2010 SAVE ROMAIN MOUCHONS 00:25:50 00:25:50 13,471 04:27 SCO H 13 777
59 2024 BOURGEOIS LOUIS ESM 00:25:56 00:25:56 13,419 04:28 xH 4 774
60 2173 JESSY DEWEVER ACCO 00:25:58 00:25:58 13,402 04:29 CAD H 8 773
61 1118 THOMAS CAILTEUR ATHÉNÉE ROYAL PHILIPPEVILLE 00:25:59 00:25:59 13,393 04:29 CAD H 9 773
62 2284 F AICHA OUBOUSKOUR CRAC 00:25:59 00:25:59 13,393 04:29 TC F 2 773
63 2184 DUJARDIN GREGORY 00:26:00 00:26:00 13,385 04:29 TC H 34 772
64 2136 WALLON THIBAUT 00:26:11 00:26:11 13,291 04:31 TC H 35 767
65 2201 GOOSSENS JULIEN 00:26:11 00:26:11 13,291 04:31 TC H 36 767
66 2072 SEDEGI ABDUL REFUGIES DE COUVIN 00:26:12 00:26:12 13,282 04:31 TC H 37 767
67 2275 F CATHERINE NICOLAS 00:26:13 00:26:13 13,274 04:31 TC F 3 766
68 1197 CHRISTOPHE DAMBROISE 00:26:15 00:26:15 13,257 04:32 TC H 38 765
69 1151 FRANCOIS FILLIEUX KIN&SPORT 00:26:21 00:26:21 13,207 04:33 TC H 39 762
70 2291 SHINWARI HABIB 00:26:37 00:26:37 13,074 04:35 TC H 40 755
71 1010 F ELISE LECHAT JACO 00:26:43 00:26:43 13,026 04:36 CAD F 1 752
72 2203 LOGAN GRAMBRAS 00:26:43 00:26:43 13,026 04:36 TC H 41 752
73 2132 BLOUDELLE VALENTIN 00:26:50 00:26:50 12,969 04:38 TC H 42 748
74 1177 JULIEN FICHET JACO 00:26:53 00:26:53 12,945 04:38 CAD H 10 747
75 2367 MAHY THEO 00:26:53 00:26:53 12,945 04:38 CAD H 11 747
76 2396 THÉO VOOGD SHARKS-JACO 00:26:53 00:26:53 12,945 04:38 xH 5 747
77 2167 CHALOT GILLES 00:27:02 00:27:02 12,873 04:40 CAD H 12 743
78 2345 MAURENNE FRANCOIS 00:27:03 00:27:03 12,865 04:40 TC H 43 742
79 2050 VERLAINE ERIC JACO 00:27:08 00:27:08 12,825 04:41 TC H 44 740
80 2188 F ALIA FRAHTIA ACCO 00:27:08 00:27:08 12,825 04:41 CAD F 2 740
81 2006 HENRARD ROMANN 00:27:12 00:27:12 12,794 04:41 TC H 45 738
82 2365 BALLEZ GUY 00:27:12 00:27:12 12,794 04:41 TC H 46 738
83 1058 F THÉA RENARD 00:27:16 00:27:16 12,763 04:42 CAD F 3 737
84 2191 NAERT CHRISTIAN 00:27:24 00:27:24 12,701 04:43 TC H 47 733
85 1055 MAXIME WULLAERT TRAILER DES FAGNES 00:27:30 00:27:30 12,655 04:44 TC H 48 730
86 1034 F MARINNE DENAYER LA THURE 00:27:33 00:27:33 12,632 04:45 SCO F 2 729
87 1143 LIONEL BASTIN 00:27:46 00:27:46 12,533 04:47 TC H 49 723
88 2215 ALIBERT CLEMANT 00:27:49 00:27:49 12,510 04:48 CAD H 13 722
89 2194 00:27:50 00:27:50 12,503 04:48 1 722
90 2114 THIBAUX KEVIN 00:27:54 00:27:54 12,473 04:49 TC H 50 720
91 1060 TEDDY DUCOURTIOUX ALBATROS 00:28:04 00:28:04 12,399 04:50 TC H 51 716
92 2148 INSTALLE MATHIAS ESM 00:28:07 00:28:07 12,377 04:51 xH 6 714
93 2068 INSTALLE CEDRIC ESM 00:28:08 00:28:08 12,370 04:51 TC H 52 714
94 2382 VANHEES CHRISTOPHER JACO 00:28:10 00:28:10 12,355 04:51 TC H 53 713
95 2103 F THONE SHERIDAN HEUREUX ABRIS 00:28:11 00:28:11 12,348 04:52 CAD F 4 713
96 2168 F SARAH DEPESTEL VAULX 00:28:13 00:28:13 12,333 04:52 TC F 4 712
97 2231 FALISE ACHILLE 00:28:21 00:28:21 12,275 04:53 SCO H 14 708
98 1153 CHRISTOPHE WERRION KIN&SPORT 00:28:22 00:28:22 12,268 04:53 TC H 54 708
99 2200 MORREELS GODEFROID JTRR 00:28:23 00:28:23 12,261 04:54 TC H 55 708
100 2079 KOHASTAMI QUAIS REFUGIES DE COUVIN 00:28:28 00:28:28 12,225 04:54 TC H 56 706
101 248 00:28:33 00:28:33 12,189 04:55 2 703
102 2067 MINET VINCENT 00:28:33 00:28:33 12,189 04:55 TC H 57 703
103 1122 F MERY ENSAY ATHÉNÉE ROYAL PHILIPPEVILLE 00:28:34 00:28:34 12,182 04:56 CAD F 5 703
104 1162 THOMAS PAQUET KIN&SPORT 00:28:38 00:28:38 12,154 04:56 TC H 58 701
105 2115 LEJEUNE NICOLAS 00:28:38 00:28:38 12,154 04:56 TC H 59 701
106 2106 F BECUE MARGAUX RGABW 00:28:47 00:28:47 12,090 04:58 CAD F 6 698
107 1006 JACKY CHARLIER ARCH 00:28:54 00:28:54 12,041 04:59 TC H 60 695
108 1134 DAVY PETRISOT ATHÉNÉE ROYAL PHILIPPEVILLE 00:28:54 00:28:54 12,041 04:59 CAD H 14 695
109 1115 THÉO BATAILLE ATHÉNÉE ROYAL PHILIPPEVILLE 00:28:55 00:28:55 12,035 04:59 CAD H 15 695
110 2316 DUROT QUENTIN 00:28:55 00:28:55 12,035 04:59 CAD H 16 695
111 2278 JEROME NICOLAS 00:28:57 00:28:57 12,021 04:59 TC H 61 694
112 1003 F ANGÉLIQUE BARBENÇON JCPMFC 00:29:03 00:29:03 11,979 05:01 TC F 5 691
113 2196 SHERENZOI INAM REFUGIES DE COUVIN 00:29:03 00:29:03 11,979 05:01 TC H 62 691
114 2127 MEERTENS RENE JACO 00:29:06 00:29:06 11,959 05:01 TC H 63 690
115 2243 F ROIWET MORGANE JACO 00:29:06 00:29:06 11,959 05:01 CAD F 7 690
116 1048 F ANNE WIAME 00:29:09 00:29:09 11,938 05:02 TC F 6 689
117 2386 F LISA VOOGD SHARKS-JACO 00:29:09 00:29:09 11,938 05:02 CAD F 8 689
118 2369 BECUE VICTOR MOHA 00:29:24 00:29:24 11,837 05:04 xH 7 683
119 2294 F SAMIRA OUBOUSKOUR CRAC 00:29:25 00:29:25 11,830 05:04 CAD F 9 683
120 1061 F FRANCETTE FOSTY BARRIÈRE 00:29:30 00:29:30 11,797 05:05 TC F 7 681
121 2038 CHRISTOPHE BRAUNE 00:29:30 00:29:30 11,797 05:05 TC H 64 681
122 2051 VINCENT BRAUNE UAC 00:29:30 00:29:30 11,797 05:05 TC H 65 681
123 2143 LAURENT DEBAIX 00:29:44 00:29:44 11,704 05:08 TC H 66 675
124 1082 F ZOÉ GUELENNE ATHÉNÉE ROYAL CHIMAY 00:29:45 00:29:45 11,697 05:08 CAD F 10 675
125 1092 F ELOÏSE MOINET ATHÉNÉE ROYAL CHIMAY 00:29:45 00:29:45 11,697 05:08 CAD F 11 675
126 1125 LUCAS HUART ATHÉNÉE ROYAL PHILIPPEVILLE 00:29:48 00:29:48 11,678 05:08 CAD H 17 674
127 2165 FAROGH OBAID REFUGIES DE COUVIN 00:29:49 00:29:49 11,671 05:08 TC H 67 674
128 1180 CHRISTOPHE PINOT 00:29:55 00:29:55 11,632 05:09 TC H 68 671
129 2340 MAXENCE VERSCHELDEN ALBATROS 00:30:06 00:30:06 11,561 05:11 TC H 69 667
130 1193 MICKAËL VAN LOO 00:30:11 00:30:11 11,530 05:12 TC H 70 665
131 2335 F FOUCARTE MARIE-LINE GERPINNES&CO 00:30:23 00:30:23 11,454 05:14 TC F 8 661
132 1040 F MARCELLE COLLART 00:30:24 00:30:24 11,447 05:14 TC F 9 661
133 1186 F ELISA HOCQUET JACO 00:30:24 00:30:24 11,447 05:14 CAD F 12 661
134 2253 BELLOT GUILLAUME 00:30:25 00:30:25 11,441 05:15 SCO H 15 660
135 2007 F MONTEGNIES SABRINA 00:30:26 00:30:26 11,435 05:15 TC F 10 660
136 1128 F CHARLOTTE JUNEMANN ATHÉNÉE ROYAL PHILIPPEVILLE 00:30:33 00:30:33 11,391 05:16 CAD F 13 657
137 1124 F CLÉMENTINE GOETHALS ATHÉNÉE ROYAL PHILIPPEVILLE 00:30:34 00:30:34 11,385 05:16 CAD F 14 657
138 1011 F MARIE MASSART JCPMFC 00:30:39 00:30:39 11,354 05:17 TC F 11 655
139 1044 NATHAN ESPREUX 00:30:40 00:30:40 11,348 05:17 CAD H 18 655
140 2218 LECOMTE MARTIN 00:30:43 00:30:43 11,329 05:18 TC H 71 654
141 1173 F VIRGINIE FRANCQ RAPTOR TEAM 00:30:45 00:30:45 11,317 05:18 TC F 12 653
142 2324 F STÉPHANIE VAN MALLEGHEM RAPTOR TEAM 00:30:46 00:30:46 11,311 05:18 TC F 13 653
143 2393 F SCIEUR STEFFI 00:30:47 00:30:47 11,305 05:18 SCO F 3 652
144 314 CARLIER LOIC 00:30:48 00:30:48 11,299 05:19 SCO H 16 652
145 333 F HERAUT VERONIQUE JOG HERMETON 00:30:49 00:30:49 11,293 05:19 TC F 14 652
146 2041 FIFIS ARTHUR 00:31:01 00:31:01 11,220 05:21 TC H 72 648
147 2293 F COLIN SEVRINE 00:31:03 00:31:03 11,208 05:21 xF 1 647
148 2381 VISART DE BACARMÉ ANTOINE 00:31:05 00:31:05 11,196 05:22 CAD H 19 646
149 2160 F COLINE DEPESTEL VAULX 00:31:07 00:31:07 11,184 05:22 TC F 15 645
150 2195 ALIZADA MOHAMMAD REFUGIES DE COUVIN 00:31:08 00:31:08 11,178 05:22 TC H 73 645
151 2210 DELSAUX XAVIER 00:31:13 00:31:13 11,148 05:23 TC H 74 643
152 2248 FABIEN JANSSENS 00:31:15 00:31:15 11,136 05:23 TC H 75 643
153 1107 THIBAUT CANVAT ATHÉNÉE ROYAL JEAN REY SEC. 00:31:18 00:31:18 11,118 05:24 CAD H 20 642
154 1106 MATHIEU BOUVY ATHÉNÉE ROYAL JEAN REY SEC. 00:31:23 00:31:23 11,089 05:25 CAD H 21 640
155 2122 F DARDENNE MANON 00:31:24 00:31:24 11,083 05:25 xF 2 640
156 1026 F LINDSEY CAUDRON JTRR 00:31:25 00:31:25 11,077 05:25 TC F 16 639
157 1073 F CAMILLE DARDENNE ATHÉNÉE ROYAL CHIMAY 00:31:26 00:31:26 11,071 05:25 SCO F 4 639
158 1007 SEBASTIEN ESPREUX TRAILERS DES FAGNES 00:31:28 00:31:28 11,059 05:26 TC H 76 638
159 1036 F MÉLANIE NUYTTEN ACCO 00:31:31 00:31:31 11,042 05:26 TC F 17 637
160 2207 NICOLAS JORDAN 00:31:38 00:31:38 11,001 05:27 TC H 77 635
161 2244 DAEMS ALAIN JTRR ROCRO 00:31:44 00:31:44 10,966 05:28 TC H 78 633
162 1078 F BÉNÉDICTE GILLAIN ATHÉNÉE ROYAL CHIMAY 00:31:45 00:31:45 10,961 05:28 TC F 18 633
163 1096 ERIC PETRY ATHÉNÉE ROYAL CHIMAY 00:31:45 00:31:45 10,961 05:28 TC H 79 633
164 2249 F ROMANE HENRY 00:31:49 00:31:49 10,938 05:29 TC F 19 631
165 2080 CALLE NOÉ 00:31:55 00:31:55 10,903 05:30 SCO H 17 629
166 2257 F CLARISSE LIBERT JACO 00:31:56 00:31:56 10,898 05:30 SCO F 5 629
167 1102 F TAMIRA TATON ATHÉNÉE ROYAL CHIMAY 00:31:57 00:31:57 10,892 05:31 SCO F 6 629
168 2280 F MIHOUB NORA CHIMAY TRAIL AVENTURE 00:31:59 00:31:59 10,881 05:31 TC F 20 628
169 2182 JOËL DUBUISSON ALBATROS 00:32:05 00:32:05 10,847 05:32 TC H 80 626
170 2181 F TATON ROSE-LORENCE 00:32:06 00:32:06 10,841 05:32 TC F 21 626
171 2223 SIMON BENJAMIN 00:32:08 00:32:08 10,830 05:32 SCO H 18 625
172 2217 DETRICHE JEHANNE 00:32:17 00:32:17 10,780 05:34 TC H 81 622
173 2133 MAXENCE DAPARE 00:32:25 00:32:25 10,735 05:35 TC H 82 620
174 2075 F INSTALLE LEA ESM 00:32:30 00:32:30 10,708 05:36 xF 3 618
175 2226 F RUGO CORINNE 00:32:34 00:32:34 10,686 05:37 TC F 22 617
176 2343 SPEIEERS VINCENT 00:32:41 00:32:41 10,648 05:38 TC H 83 614
177 2379 SMET LUDOVIC 00:32:41 00:32:41 10,648 05:38 TC H 84 614
178 1054 F ISABELLE PACAUX TRAILERS DES FAGNES 00:32:43 00:32:43 10,637 05:38 TC F 23 614
179 2290 CHARLIER KEVIN 00:32:49 00:32:49 10,604 05:39 TC H 85 612
180 1108 ALEXANDRE GOMES ATHÉNÉE ROYAL JEAN REY SEC. 00:32:51 00:32:51 10,594 05:40 CAD H 22 611
181 2378 DAMBOIS THIERRY UAC 00:32:53 00:32:53 10,583 05:40 TC H 86 611
182 2235 F OPHÉLIE HACHON 00:32:57 00:32:57 10,561 05:41 TC F 24 610
183 2125 F MONTY SERENA ATHÉNÉE ROYAL PHILIPPEVILLE 00:32:58 00:32:58 10,556 05:41 SCO F 7 609
184 2177 HAKIMI RAHIM REFUGIES DE COUVIN 00:32:58 00:32:58 10,556 05:41 TC H 87 609
185 2304 F DESORBAY CHRISTINE JACO 00:32:58 00:32:58 10,556 05:41 TC F 25 609
186 1194 FRÉDÉRICK NICOLAS 00:33:00 00:33:00 10,545 05:41 TC H 88 609
187 1068 NICOLAS FOURNIER ALBATROS 00:33:04 00:33:04 10,524 05:42 TC H 89 607
188 2190 F LORENT VIRGINIE JOG HERMETON 00:33:05 00:33:05 10,519 05:42 TC F 26 607
189 1066 FRÉDÉRIC RABATE ALBATROS 00:33:06 00:33:06 10,514 05:42 TC H 90 607
190 2156 F MÉLANIE DELPORTE JTRR 00:33:06 00:33:06 10,514 05:42 TC F 27 607
191 2383 F BADOT JULIE JOG HERMETON 00:33:07 00:33:07 10,508 05:43 TC F 28 606
192 2046 F NINITE ISABELLE 00:33:08 00:33:08 10,503 05:43 TC F 29 606
193 2399 CORAZZA PHILIPPE 00:33:08 00:33:08 10,503 05:43 TC H 91 606
194 1083 F MARGAUX GUELENNE ATHÉNÉE ROYAL CHIMAY 00:33:09 00:33:09 10,498 05:43 SCO F 8 606
195 1023 HUGO ROCHETTE JACO 00:33:10 00:33:10 10,492 05:43 CAD H 23 606
196 1191 F ANNIE DUPUIS 00:33:11 00:33:11 10,487 05:43 TC F 30 605
197 2039 BONVELLE ROBERT 00:33:12 00:33:12 10,482 05:43 TC H 92 605
198 2152 F INGRID DEBUS SHARKS 00:33:18 00:33:18 10,450 05:44 TC F 31 603
199 2112 JUSTIN COULONVAL KIN&SPORT 00:33:26 00:33:26 10,409 05:46 TC H 93 601
200 2239 00:33:31 00:33:31 10,383 05:47 3 599
201 1195 F LAURENCE MOULIN 00:33:33 00:33:33 10,373 05:47 TC F 32 599
202 2282 BASTIN CLAUDE JACO 00:33:36 00:33:36 10,357 05:48 TC H 94 598
203 2002 JACUQEMARTA FRANCOIS 00:33:38 00:33:38 10,347 05:48 TC H 95 597
204 2102 CHRISTOPHE COLOT AUCUN 00:33:44 00:33:44 10,316 05:49 TC H 96 595
205 1189 F ABELINE DETRE JCPMF CHIMAY 00:33:46 00:33:46 10,306 05:49 CAD F 15 595
206 2332 JÉRÉMIE VERMOORTEL 00:33:54 00:33:54 10,265 05:51 TC H 97 592
207 1148 AUGUSTIN BASTIN KIN&SPORT 00:33:59 00:33:59 10,240 05:52 CAD H 24 591
208 1150 MATHEO MINIQUE KIN&SPORT 00:33:59 00:33:59 10,240 05:52 SCO H 19 591
209 2185 JEAN DUJARDIN 00:34:01 00:34:01 10,230 05:52 TC H 98 590
210 1114 MICHAËL STEINER ATHÉNÉE ROYAL JEAN REY SEC. 00:34:05 00:34:05 10,210 05:53 CAD H 25 589
211 1165 F ÉLODIE HENRY KIN&SPORT 00:34:18 00:34:18 10,146 05:55 TC F 33 586
212 2295 DELMOTTE ALEX 00:34:28 00:34:28 10,097 05:57 xH 8 583
213 2118 VANDECONTEELE GUILLAUME 00:34:31 00:34:31 10,082 05:57 TC H 99 582
214 2097 BELLENGER FREDERIC 00:34:32 00:34:32 10,077 05:57 TC H 100 582
215 2347 MARCHEL BENOIT 00:34:37 00:34:37 10,053 05:58 TC H 101 580
216 1119 F CATHERINE CAPOUILLET ATHÉNÉE ROYAL PHILIPPEVILLE 00:34:39 00:34:39 10,043 05:58 TC F 34 580
217 1185 MICHAËL HOCQUET 00:34:39 00:34:39 10,043 05:58 TC H 102 580
218 1111 ALEXIS MAGGIONI ATHÉNÉE ROYAL JEAN REY SEC. 00:34:41 00:34:41 10,034 05:59 CAD H 26 579
219 1076 F ANOUK DESHORME ATHÉNÉE ROYAL CHIMAY 00:34:43 00:34:43 10,024 05:59 SCO F 9 578
220 2204 F POINT SOPHIE 00:34:45 00:34:45 10,014 05:59 TC F 35 578
221 1071 F JULIETTE BERTRAND ATHÉNÉE ROYAL CHIMAY 00:34:48 00:34:48 10,000 06:00 SCO F 10 577
222 2116 F TATON ROSE-MICHEL JCPMF 00:34:48 00:34:48 10,000 06:00 TC F 36 577
223 1093 F MÉLINDA LESSOILLE ATHÉNÉE ROYAL CHIMAY 00:34:49 00:34:49 9,995 06:00 SCO F 11 577
224 2187 F HAUWEL CELINE 00:34:54 00:34:54 9,971 06:01 TC F 37 575
225 2374 VAN DE VELDE THIBAULT 00:34:55 00:34:55 9,967 06:01 CAD H 27 575
226 1088 F LISE LESCEUX ATHÉNÉE ROYAL CHIMAY 00:34:57 00:34:57 9,957 06:02 xF 4 575
227 2052 F HANNECART NATHALIE 00:34:57 00:34:57 9,957 06:02 TC F 38 575
228 1052 F HÉLÈNE DE PESTEL VAULX 00:34:58 00:34:58 9,952 06:02 TC F 39 574
229 1184 F LUCIE SEPTON JCPMF CHIMAY 00:34:58 00:34:58 9,952 06:02 TC F 40 574
230 2242 F TOMASEVSZKY CORINNE 00:35:03 00:35:03 9,929 06:03 TC F 41 573
231 2018 LAFFINEUR CHRISTIAN LA THURE 00:35:07 00:35:07 9,910 06:03 TC H 103 572
232 1178 F LISA BIENAIME 00:35:08 00:35:08 9,905 06:03 TC F 42 572
233 1183 F EMELINE ELIS 00:35:08 00:35:08 9,905 06:03 TC F 43 572
234 2147 F BARLIER SYLVIE 00:35:18 00:35:18 9,858 06:05 TC F 44 569
235 2169 F MARTINE DRUART 00:35:18 00:35:18 9,858 06:05 TC F 45 569
236 2283 F LAMBINET MEURINE 00:35:18 00:35:18 9,858 06:05 TC F 46 569
237 1120 F MÉLISSA CHESNOIS ATHÉNÉE ROYAL PHILIPPEVILLE 00:35:21 00:35:21 9,844 06:06 CAD F 16 568
238 1199 F STEPHANIE DEFTERIGOS 00:35:21 00:35:21 9,844 06:06 TC F 47 568
239 2363 DURET LUCIE 00:35:22 00:35:22 9,840 06:06 TC H 104 568
240 1152 F ÉLODIE BOURTEMBOURG KIN&SPORT 00:35:24 00:35:24 9,830 06:06 TC F 48 567
241 2088 F VINCIANE CHENET JE COURS DOISCHE 00:35:28 00:35:28 9,812 06:07 TC F 49 566
242 1012 F MORGANE MEERTENS LA THURE 00:35:33 00:35:33 9,789 06:08 TC F 50 565
243 2302 F DE KEYSER AURELIE 00:35:33 00:35:33 9,789 06:08 xF 5 565
244 2085 F ROMAIN MARIE-BENEDICTE JTRR 00:35:34 00:35:34 9,784 06:08 TC F 51 565
245 2298 F MAËVA PILLON GONCELIN 00:35:36 00:35:36 9,775 06:08 CAD F 17 564
246 2373 F JESSICA VOLONT 00:35:36 00:35:36 9,775 06:08 TC F 52 564
247 1157 MICHEL ROBIN KIN&SPORT 00:35:42 00:35:42 9,748 06:09 TC H 105 563
248 1158 F CLAUDINE DUPUIS KIN&SPORT 00:35:42 00:35:42 9,748 06:09 TC F 53 563
249 2265 F CHARLIER LUCIE ATHÉNÉE ROYAL PHILIPPEVILLE 00:35:46 00:35:46 9,730 06:10 SCO F 12 562
250 2020 F SIMON ISEUT ATHÉNÉE ROYAL PHILIPPEVILLE 00:35:47 00:35:47 9,725 06:10 SCO F 13 561
251 2117 F LEFOUR CHARLOTTE 00:36:04 00:36:04 9,649 06:13 TC F 54 557
252 2137 F KATHY DE ALMEIDA 00:36:05 00:36:05 9,644 06:13 TC F 55 557
253 1167 F ALINE DE SCHRYVER 00:36:15 00:36:15 9,600 06:15 TC F 56 554
254 2254 F MAUD LEBLON 00:36:15 00:36:15 9,600 06:15 TC F 57 554
255 2397 F PHYLICE WAUTHELET ACCO 00:36:15 00:36:15 9,600 06:15 SCO F 14 554
256 2172 CAUDRON EDWIGE 00:36:16 00:36:16 9,596 06:15 TC H 106 554
257 2310 F CLESSE ANAELLE 00:36:16 00:36:16 9,596 06:15 CAD F 18 554
258 2019 VEKEMANS JORDAN US DE PESCHE 00:36:28 00:36:28 9,543 06:17 TC H 107 551
259 1154 F ANAIS VANHAELEWYN KIN&SPORT 00:36:34 00:36:34 9,517 06:18 TC F 58 549
260 2128 F HOUCKE CATHERINE 00:36:35 00:36:35 9,512 06:18 TC F 59 549
261 2014 F CORAZZA MADELINE 00:36:39 00:36:39 9,495 06:19 TC F 60 548
262 1014 F ZOÉ QUADFLIEG ATHÉNÉE ROYAL JEAN REY SEC. 00:36:40 00:36:40 9,491 06:19 CAD F 19 548
263 2025 THOMAS BEAUPREAU ALBATROS 00:36:45 00:36:45 9,469 06:20 TC H 108 546
264 2186 ARNAUD DUMESNIL ALBATROS 00:36:48 00:36:48 9,456 06:21 TC H 109 546
265 2163 F COLLET MARGOT 00:36:49 00:36:49 9,452 06:21 CAD F 20 545
266 2101 F ELODIE COENE 00:36:51 00:36:51 9,444 06:21 TC F 61 545
267 1067 ADRIEN LESAGE ALBATROS 00:36:56 00:36:56 9,422 06:22 TC H 110 544
268 2153 ARNAUD DELACOURT 00:36:57 00:36:57 9,418 06:22 TC H 111 544
269 1176 F VANESSA DELHAISE RAPTOR TEAM 00:37:00 00:37:00 9,405 06:23 TC F 62 543
270 2269 F WILMART BERANGERE JCPMF COUVIN 00:37:03 00:37:03 9,393 06:23 TC F 63 542
271 2029 F BUEZ MAY 00:37:07 00:37:07 9,376 06:24 TC F 64 541
272 2154 F DUJEUX JULIE JC PHILIPPEVILLE 00:37:11 00:37:11 9,359 06:25 TC F 65 540
273 2130 F CHRISTIANE DAIX JCPMF COUVIN 00:37:19 00:37:19 9,326 06:26 TC F 66 538
274 2317 JÉRÔME TEIXEIRA ALBATROS 00:37:23 00:37:23 9,309 06:27 TC H 112 537
275 2142 F GUIMIN MARJORIE JCPMF COUVIN 00:37:26 00:37:26 9,296 06:27 CAD F 21 537
276 2368 F PIERRE VIVIANE UAC 00:37:27 00:37:27 9,292 06:27 TC F 67 536
277 2395 F GUIMIN LUCIE JCPMF COUVIN 00:37:27 00:37:27 9,292 06:27 CAD F 22 536
278 2287 F VANDERHEYDEN VALÉRIE 00:37:31 00:37:31 9,276 06:28 TC F 68 535
279 2245 ANTOINE HANNEVART 00:38:04 00:38:04 9,142 06:34 CAD H 28 528
280 2328 F HURSON ANGELIQUE 00:38:05 00:38:05 9,138 06:34 TC F 69 527
281 2247 LAURENT HANNEVART 00:38:08 00:38:08 9,126 06:34 TC H 113 527
282 1168 F CÉCILE CUVELIER 00:38:12 00:38:12 9,110 06:35 TC F 70 526
283 1065 GUILLAUME SAUVAGE ALBATROS 00:38:17 00:38:17 9,090 06:36 TC H 114 525
284 2268 F SANDRA MOUSQUET JTRR 00:38:24 00:38:24 9,062 06:37 TC F 71 523
285 1101 F ÉRINE STEVENS ATHÉNÉE ROYAL CHIMAY 00:38:32 00:38:32 9,031 06:39 SCO F 15 521
286 1109 F PRESCYLLIA HÉLIN ATHÉNÉE ROYAL JEAN REY SEC. 00:38:32 00:38:32 9,031 06:39 CAD F 23 521
287 2011 F LISE AELGOET 00:38:32 00:38:32 9,031 06:39 TC F 72 521
288 2314 F DESCARTES PAULINE 00:38:32 00:38:32 9,031 06:39 xF 6 521
289 1041 F LÉA PAQUET ATHÉNÉE ROYAL JEAN REY SEC. 00:38:34 00:38:34 9,023 06:39 CAD F 24 521
290 1130 F LARA LELEUX ATHÉNÉE ROYAL PHILIPPEVILLE 00:38:40 00:38:40 9,000 06:40 CAD F 25 519
291 1131 F CHRISTIE MATTEZ ATHÉNÉE ROYAL PHILIPPEVILLE 00:38:40 00:38:40 9,000 06:40 CAD F 26 519
292 1113 JAYSON RUNEMBERT ATHÉNÉE ROYAL JEAN REY SEC. 00:38:43 00:38:43 8,988 06:41 CAD H 29 519
293 1129 F PERRINE KILIC ATHÉNÉE ROYAL PHILIPPEVILLE 00:38:43 00:38:43 8,988 06:41 SCO F 16 519
294 1099 F PAULINE SCHERGEN ATHÉNÉE ROYAL CHIMAY 00:38:49 00:38:49 8,965 06:42 SCO F 17 517
295 2334 F XXX LAMOKO REFUGIES DE COUVIN 00:38:49 00:38:49 8,965 06:42 TC F 73 517
296 1141 F ANNE-CATHERINE YSEBAERT 00:38:50 00:38:50 8,961 06:42 TC F 74 517
297 1077 F ANGÈLES GEORGES ATHÉNÉE ROYAL CHIMAY 00:38:51 00:38:51 8,958 06:42 TC F 75 517
298 1103 F CLARA VINCENT ATHÉNÉE ROYAL CHIMAY 00:38:52 00:38:52 8,954 06:42 CAD F 27 517
299 1123 F JUSTINE GILLES ATHÉNÉE ROYAL PHILIPPEVILLE 00:38:52 00:38:52 8,954 06:42 CAD F 28 517
300 1075 F FLORENCE DESHORME ATHÉNÉE ROYAL CHIMAY 00:38:53 00:38:53 8,950 06:42 SCO F 18 517
301 1174 F LAURENCE FRANCQ RAPTOR TEAM 00:38:54 00:38:54 8,946 06:42 TC F 76 516
302 2109 F EMMA COOREN JTRR 00:38:56 00:38:56 8,938 06:43 CAD F 29 516
303 2326 F BALCAEN CELINE 00:38:57 00:38:57 8,934 06:43 TC F 77 516
304 2250 F LAURETTE KIMBERLY JACO 00:38:58 00:38:58 8,931 06:43 xF 7 515
305 2069 F LAUREYS CAROLINE 00:39:01 00:39:01 8,919 06:44 TC F 78 515
306 2159 F BRESSER TRACY JCPMF PHIL 00:39:01 00:39:01 8,919 06:44 TC F 79 515
307 1038 F ELÉA ROCHETTE JACO 00:39:03 00:39:03 8,912 06:44 TC F 80 514
308 2222 F FOSTY KATLEEN 00:39:09 00:39:09 8,889 06:45 TC F 81 513
309 2037 MIHOUB AKIM 00:39:13 00:39:13 8,874 06:46 TC H 115 512
310 2209 ALIBERT CHARLES 00:39:16 00:39:16 8,862 06:46 SCO H 20 511
311 2199 F FRANCOTE DELPHINE 00:39:19 00:39:19 8,851 06:47 TC F 82 511
312 2036 GREGOIRE JEAN PAUL 00:39:20 00:39:20 8,847 06:47 TC H 116 511
313 2271 F LAURIANE NEERDAEL DOISCHE 00:39:21 00:39:21 8,844 06:47 TC F 83 510
314 2312 F CLAIRE SIMÉON 00:39:21 00:39:21 8,844 06:47 TC F 84 510
315 1070 F NOÉMIE BERNARD ATHÉNÉE ROYAL CHIMAY 00:39:22 00:39:22 8,840 06:47 SCO F 19 510
316 1079 F LOÏSE GRUMIAUX ATHÉNÉE ROYAL CHIMAY 00:39:22 00:39:22 8,840 06:47 SCO F 20 510
317 2098 PREUMONT DENIS MOUCHONS 00:39:27 00:39:27 8,821 06:48 TC H 117 509
318 2267 F CORELIE MORREELS 00:39:32 00:39:32 8,803 06:49 TC F 85 508
319 1085 F ALISON LEDOUX ATHÉNÉE ROYAL CHIMAY 00:39:42 00:39:42 8,766 06:51 SCO F 21 506
320 1100 F LOHANE STEVENS ATHÉNÉE ROYAL CHIMAY 00:39:42 00:39:42 8,766 06:51 CAD F 30 506
321 1016 F NATHALIE LENOIR JCPMF COUVIN 00:39:51 00:39:51 8,733 06:52 TC F 86 504
322 1188 F LORINE DAPARE 00:39:51 00:39:51 8,733 06:52 SCO F 22 504
323 1187 F CHRISTELLE LEBRUN 00:39:52 00:39:52 8,729 06:52 TC F 87 504
324 2333 LONFILS REMY 00:40:12 00:40:12 8,657 06:56 SCO H 21 500
325 2225 MONTY ANDRÉ 00:40:13 00:40:13 8,653 06:56 TC H 118 499
326 2342 ARPIGNY BRYAN 00:40:13 00:40:13 8,653 06:56 SCO H 22 499
327 1163 JÉROME DELAHAUT KIN&SPORT 00:40:19 00:40:19 8,632 06:57 TC H 119 498
328 1164 F ADELINE DUBUC KIN&SPORT 00:40:19 00:40:19 8,632 06:57 TC F 88 498
329 2305 PORTO-CARRERO EMERIK JACO 00:40:31 00:40:31 8,589 06:59 xH 9 496
330 2313 F OEHMICHEN JIL 00:40:32 00:40:32 8,585 06:59 TC F 89 495
331 1074 F EVE DERZELLE ATHÉNÉE ROYAL CHIMAY 00:40:34 00:40:34 8,578 07:00 CAD F 31 495
332 2164 F DELOGNE ISABELLE 00:40:36 00:40:36 8,571 07:00 TC F 90 495
333 2004 F SCORNICIEL PAULINE 00:40:37 00:40:37 8,568 07:00 TC F 91 494
334 2056 F MOUCKE NATHALIE 00:40:37 00:40:37 8,568 07:00 TC F 92 494
335 1087 F ERIN LEROY ATHÉNÉE ROYAL CHIMAY 00:40:39 00:40:39 8,561 07:01 SCO F 23 494
336 1156 F DE MAERE LINDA KIN&SPORT 00:40:45 00:40:45 8,540 07:02 TC F 93 493
337 2208 F BRANDT CHRISTELLE 00:40:45 00:40:45 8,540 07:02 TC F 94 493
338 1086 F MARGAUX LEPAGE ATHÉNÉE ROYAL CHIMAY 00:40:50 00:40:50 8,522 07:02 TC F 95 492
339 1149 GREGOIRE DESSEL KIN&SPORT 00:40:57 00:40:57 8,498 07:04 CAD H 30 490
340 1136 F EMILIE ROUSSEAU ATHÉNÉE ROYAL PHILIPPEVILLE 00:41:00 00:41:00 8,488 07:04 CAD F 32 490
341 1105 HASAN BOGA ATHÉNÉE ROYAL JEAN REY SEC. 00:41:06 00:41:06 8,467 07:05 SCO H 23 489
342 1161 F LAETITIA DUJARDIN KIN&SPORT 00:41:15 00:41:15 8,436 07:07 TC F 96 487
343 1145 F SABINE SEVRAIN JCPMF 00:41:22 00:41:22 8,413 07:08 TC F 97 485
344 2045 F PERARD KATHY 00:41:22 00:41:22 8,413 07:08 TC F 98 485
345 1137 F ALYSSIA TAROUANSAÏD ATHÉNÉE ROYAL PHILIPPEVILLE 00:41:29 00:41:29 8,389 07:09 CAD F 33 484
346 1138 F PHYLLIS UNSAL ATHÉNÉE ROYAL PHILIPPEVILLE 00:41:30 00:41:30 8,386 07:09 CAD F 34 484
347 2107 F CAUDRON EMMANUELLE 00:41:34 00:41:34 8,372 07:10 TC F 99 483
348 2082 F MARIE-CLAUDE CHAINAYE 00:41:36 00:41:36 8,365 07:10 TC F 100 483
349 1090 F LUCIE MEUTE ATHÉNÉE ROYAL CHIMAY 00:41:47 00:41:47 8,329 07:12 SCO F 24 481
350 1015 ALAIN VANDERLINDEN VIROSPORT 00:41:55 00:41:55 8,302 07:14 TC H 120 479
351 1196 F LAETITIA FOURNEL - 00:41:59 00:41:59 8,289 07:14 TC F 101 478
352 1049 F DOROTHEE SURAY ACCO 00:42:00 00:42:00 8,286 07:14 TC F 102 478
353 2307 LOUCA SAQUET ACCO 00:42:02 00:42:02 8,279 07:15 xH 10 478
354 2066 F CLAUDIA CARPIAUX 00:42:41 00:42:41 8,153 07:22 TC F 103 471
355 1160 F LYN ANTOINE KIN&SPORT 00:43:04 00:43:04 8,080 07:26 TC F 104 466
356 2111 F VANQUAQUEBEKE NATHALIE CERFONTAINE 00:43:04 00:43:04 8,080 07:26 TC F 105 466
357 2394 F VANPOUCKE MARJORIE 00:43:04 00:43:04 8,080 07:26 TC F 106 466
358 1116 F JONALINE BAUJOT ATHÉNÉE ROYAL PHILIPPEVILLE 00:43:06 00:43:06 8,074 07:26 CAD F 35 466
359 2141 F VÉRONIQUE DE KEYSER TRAILER DES FAGNES 00:43:14 00:43:14 8,049 07:27 TC F 107 465
360 2062 F BARBARA BRIQUET KIN&SPORT 00:43:16 00:43:16 8,043 07:28 TC F 108 464
361 2205 F AZZARA CLARYS 00:43:17 00:43:17 8,040 07:28 CAD F 36 464
362 2123 F MICHEL CHRISTELLE 00:43:22 00:43:22 8,025 07:29 TC F 109 463
363 2330 DECOUX ARNAUD 00:43:25 00:43:25 8,015 07:29 TC H 121 463
364 2071 F VAN KERCHOVE VINCIANE 00:43:26 00:43:26 8,012 07:29 TC F 110 462
365 2318 DARDENNE SEBASTIEN 00:43:32 00:43:32 7,994 07:30 TC H 122 461
366 1198 F FANY BRASSEUR JCPF 00:43:36 00:43:36 7,982 07:31 TC F 111 461
367 1172 F AURORE MICHAUX UAC 00:44:19 00:44:19 7,853 07:38 TC F 112 453
368 2251 F GOFFARD CHRISTIANE 00:44:32 00:44:32 7,814 07:41 TC F 113 451
369 2311 F LUCIE SERVAIS TRAILERS DES FAGNES 00:44:37 00:44:37 7,800 07:42 TC F 114 450
370 2348 F PEROT ESMERALDA 00:44:52 00:44:52 7,756 07:44 TC F 115 448
371 2300 F BOON CAROLINE 00:45:05 00:45:05 7,719 07:46 TC F 116 445
372 2308 F DEMEURE OPHÉLIE 00:45:05 00:45:05 7,719 07:46 SCO F 25 445
373 2296 F CHRISTELLE PIERRARD 00:45:50 00:45:50 7,593 07:54 TC F 117 438
374 1117 THIERRY BOUCHEZ ATHÉNÉE ROYAL PHILIPPEVILLE 00:46:22 00:46:22 7,505 08:00 TC H 123 433
375 2140 F WARNON FRANCINE JCPMF 00:46:28 00:46:28 7,489 08:01 TC F 118 432
376 1045 MICHEL VAN WISSEN J.A.C.O. 00:47:03 00:47:03 7,396 08:07 TC H 124 427
377 2139 KOCUREK FRANCIS JACO 00:47:03 00:47:03 7,396 08:07 TC H 125 427
378 1175 F SEVERINE DROPSY 00:47:44 00:47:44 7,290 08:14 TC F 119 421
379 2179 F HUBERT ARIANNE 00:47:52 00:47:52 7,270 08:15 TC F 120 420
380 2063 TESMER MICHAEL 00:47:53 00:47:53 7,268 08:15 TC H 126 419
381 2096 F DELPHINE CLAES 00:48:52 00:48:52 7,121 08:26 TC F 121 411
382 2371 F SABINE VLAYEN 00:48:53 00:48:53 7,119 08:26 TC F 122 411
383 2100 GERARD CLAES 00:49:19 00:49:19 7,056 08:30 TC H 127 407
384 1192 F HÉLÈNE MOULIN 00:49:20 00:49:20 7,054 08:30 TC F 123 407
385 1072 F VALENTINE COUTURE ATHÉNÉE ROYAL CHIMAY 00:49:27 00:49:27 7,037 08:32 CAD F 37 406
386 2306 MEUNIER VIVIAN 00:49:32 00:49:32 7,026 08:32 CAD H 31 405
387 2126 F GUIOT SANDRINE 00:49:44 00:49:44 6,997 08:34 TC F 124 404
388 2034 DURSIN EDDY 00:52:21 00:52:21 6,648 09:02 TC H 128 384
389 2229 PASHAXI ABDUL REFUGIES DE COUVIN 00:54:17 00:54:17 6,411 09:22 TC H 129 370
390 2389 MERWEES SHENEVOI 00:59:02 00:59:02 5,895 10:11 TC H 130 340